SAS2344 EDDH-EKCH
Flight info
| Callsign | SAS2344 |
|---|---|
| Flight time | 0h 33m |
| Altitude | 23000 |
| Route | LUGEG3C LUGEG P605 GESKA/N0396F220 Z711 MONAK |
| Aircraft | A320/M-SDE3FGHIRWY/LB1 |
Departure
| Time | 2026-04-30 21:49 |
|---|---|
| Airport | Hamburg Helmut Schmidt Airport (EDDH) |
Arrival
| Time | 2026-04-30 22:23 |
|---|---|
| Airport | Copenhagen Kastrup Airport (EKCH) |
| Time | Latitude | Longitude | Altitude | Speed | Heading |
|---|---|---|---|---|---|
| 2026-04-30 21:35 | 53.62807 | 10.00240 | 48 ft | 0 kts | 62° |
| 2026-04-30 21:44 | 53.62796 | 10.00205 | 43 ft | 4 kts | 62° |
| 2026-04-30 21:44 | 53.62786 | 10.00172 | 45 ft | 4 kts | 69° |
| 2026-04-30 21:45 | 53.62785 | 10.00133 | 46 ft | 4 kts | 128° |
| 2026-04-30 21:45 | 53.62798 | 10.00113 | 45 ft | 3 kts | 150° |
| 2026-04-30 21:45 | 53.62801 | 10.00109 | 46 ft | 0 kts | 153° |
| 2026-04-30 21:47 | 53.62796 | 10.00114 | 45 ft | 2 kts | 152° |
| 2026-04-30 21:47 | 53.62773 | 10.00134 | 45 ft | 6 kts | 152° |
| 2026-04-30 21:48 | 53.62724 | 10.00177 | 48 ft | 10 kts | 152° |
| 2026-04-30 21:48 | 53.62648 | 10.00242 | 48 ft | 14 kts | 153° |
| 2026-04-30 21:48 | 53.62562 | 10.00181 | 47 ft | 18 kts | 238° |
| 2026-04-30 21:48 | 53.62573 | 9.99995 | 47 ft | 20 kts | 328° |
| 2026-04-30 21:49 | 53.62746 | 9.99851 | 44 ft | 51 kts | 334° |
| 2026-04-30 21:49 | 53.63275 | 9.99393 | 45 ft | 116 kts | 333° |
| 2026-04-30 21:49 | 53.64151 | 9.98638 | 56 ft | 164 kts | 333° |
| 2026-04-30 21:49 | 53.65171 | 9.97739 | 699 ft | 163 kts | 334° |
| 2026-04-30 21:50 | 53.66185 | 9.96873 | 1450 ft | 167 kts | 334° |
| 2026-04-30 21:50 | 53.67283 | 9.95940 | 1912 ft | 188 kts | 333° |
| 2026-04-30 21:50 | 53.68537 | 9.94948 | 2337 ft | 211 kts | 343° |
| 2026-04-30 21:50 | 53.70016 | 9.94662 | 2904 ft | 217 kts | 2° |
| 2026-04-30 21:51 | 53.71550 | 9.94707 | 3692 ft | 222 kts | 5° |
| 2026-04-30 21:51 | 53.73029 | 9.95415 | 4587 ft | 222 kts | 32° |
| 2026-04-30 21:51 | 53.74201 | 9.97141 | 5241 ft | 232 kts | 57° |
| 2026-04-30 21:51 | 53.74973 | 9.99653 | 5670 ft | 252 kts | 66° |
| 2026-04-30 21:52 | 53.75743 | 10.02390 | 6414 ft | 261 kts | 66° |
| 2026-04-30 21:52 | 53.76531 | 10.05167 | 7300 ft | 264 kts | 66° |
| 2026-04-30 21:52 | 53.77335 | 10.07974 | 8167 ft | 267 kts | 65° |
| 2026-04-30 21:52 | 53.78150 | 10.10809 | 9025 ft | 270 kts | 65° |
| 2026-04-30 21:53 | 53.78979 | 10.13686 | 9875 ft | 274 kts | 65° |
| 2026-04-30 21:53 | 53.79819 | 10.16606 | 10683 ft | 279 kts | 65° |
| 2026-04-30 21:53 | 53.80696 | 10.19671 | 11008 ft | 301 kts | 65° |
| 2026-04-30 21:53 | 53.81641 | 10.22980 | 11261 ft | 323 kts | 65° |
| 2026-04-30 21:54 | 53.82636 | 10.26451 | 11823 ft | 332 kts | 64° |
| 2026-04-30 21:54 | 53.83651 | 10.29990 | 12556 ft | 336 kts | 64° |
| 2026-04-30 21:54 | 53.84673 | 10.33556 | 13321 ft | 338 kts | 64° |
| 2026-04-30 21:54 | 53.85700 | 10.37157 | 14062 ft | 341 kts | 64° |
| 2026-04-30 21:55 | 53.86736 | 10.40793 | 14747 ft | 344 kts | 64° |
| 2026-04-30 21:55 | 53.87775 | 10.44450 | 15410 ft | 347 kts | 64° |
| 2026-04-30 21:55 | 53.88824 | 10.48153 | 16045 ft | 349 kts | 64° |
| 2026-04-30 21:55 | 53.89881 | 10.51890 | 16675 ft | 352 kts | 64° |
| 2026-04-30 21:56 | 53.90940 | 10.55639 | 17316 ft | 355 kts | 63° |
| 2026-04-30 21:56 | 53.92012 | 10.59436 | 17947 ft | 358 kts | 63° |
| 2026-04-30 21:56 | 53.93094 | 10.63266 | 18560 ft | 361 kts | 63° |
| 2026-04-30 21:56 | 53.94348 | 10.66957 | 19096 ft | 363 kts | 53° |
| 2026-04-30 21:57 | 53.95985 | 10.70242 | 19600 ft | 366 kts | 46° |
| 2026-04-30 21:57 | 53.97729 | 10.73400 | 20104 ft | 369 kts | 46° |
| 2026-04-30 21:57 | 53.99488 | 10.76590 | 20613 ft | 371 kts | 46° |
| 2026-04-30 21:57 | 54.01264 | 10.79814 | 21116 ft | 374 kts | 46° |
| 2026-04-30 21:58 | 54.03049 | 10.83063 | 21604 ft | 377 kts | 46° |
| 2026-04-30 21:58 | 54.04846 | 10.86341 | 22091 ft | 380 kts | 46° |
| 2026-04-30 21:58 | 54.06651 | 10.89646 | 22554 ft | 383 kts | 46° |
| 2026-04-30 21:58 | 54.08465 | 10.92983 | 23020 ft | 386 kts | 46° |
| 2026-04-30 21:59 | 54.10295 | 10.96354 | 23388 ft | 389 kts | 46° |
| 2026-04-30 21:59 | 54.12134 | 10.99738 | 23442 ft | 390 kts | 46° |
| 2026-04-30 21:59 | 54.13978 | 11.03136 | 23447 ft | 390 kts | 46° |
| 2026-04-30 22:00 | 54.17653 | 11.09943 | 23455 ft | 390 kts | 46° |
| 2026-04-30 22:00 | 54.21320 | 11.16764 | 23451 ft | 390 kts | 46° |
| 2026-04-30 22:00 | 54.23150 | 11.20182 | 23461 ft | 390 kts | 47° |
| 2026-04-30 22:01 | 54.24978 | 11.23606 | 23454 ft | 390 kts | 47° |
| 2026-04-30 22:01 | 54.26830 | 11.27081 | 23451 ft | 390 kts | 47° |
| 2026-04-30 22:01 | 54.28655 | 11.30507 | 23448 ft | 389 kts | 47° |
| 2026-04-30 22:01 | 54.30452 | 11.33889 | 23449 ft | 389 kts | 47° |
| 2026-04-30 22:02 | 54.32298 | 11.37364 | 23450 ft | 389 kts | 47° |
| 2026-04-30 22:02 | 54.34119 | 11.40796 | 23446 ft | 389 kts | 47° |
| 2026-04-30 22:02 | 54.35941 | 11.44237 | 23452 ft | 389 kts | 47° |
| 2026-04-30 22:02 | 54.37760 | 11.47678 | 23447 ft | 389 kts | 47° |
| 2026-04-30 22:03 | 54.39579 | 11.51109 | 23441 ft | 389 kts | 47° |
| 2026-04-30 22:03 | 54.41405 | 11.54551 | 23448 ft | 389 kts | 47° |
| 2026-04-30 22:03 | 54.43222 | 11.57992 | 23445 ft | 389 kts | 47° |
| 2026-04-30 22:03 | 54.45037 | 11.61437 | 23449 ft | 389 kts | 47° |
| 2026-04-30 22:04 | 54.46856 | 11.64886 | 23448 ft | 389 kts | 47° |
| 2026-04-30 22:04 | 54.48669 | 11.68324 | 23441 ft | 388 kts | 47° |
| 2026-04-30 22:04 | 54.52305 | 11.75210 | 23445 ft | 388 kts | 47° |
| 2026-04-30 22:05 | 54.54116 | 11.78648 | 23448 ft | 388 kts | 47° |
| 2026-04-30 22:05 | 54.55928 | 11.82097 | 23448 ft | 388 kts | 47° |
| 2026-04-30 22:05 | 54.57735 | 11.85551 | 23452 ft | 388 kts | 47° |
| 2026-04-30 22:05 | 54.59533 | 11.89002 | 23446 ft | 387 kts | 47° |
| 2026-04-30 22:06 | 54.61368 | 11.92407 | 23453 ft | 386 kts | 42° |
| 2026-04-30 22:06 | 54.65644 | 11.97767 | 22841 ft | 369 kts | 33° |
| 2026-04-30 22:06 | 54.67756 | 12.00197 | 22003 ft | 361 kts | 33° |
| 2026-04-30 22:07 | 54.69829 | 12.02575 | 21141 ft | 355 kts | 33° |
| 2026-04-30 22:07 | 54.71881 | 12.04932 | 20249 ft | 357 kts | 33° |
| 2026-04-30 22:07 | 54.73945 | 12.07314 | 19813 ft | 354 kts | 34° |
| 2026-04-30 22:07 | 54.75977 | 12.09668 | 19403 ft | 349 kts | 34° |
| 2026-04-30 22:08 | 54.77981 | 12.11997 | 18961 ft | 346 kts | 34° |
| 2026-04-30 22:08 | 54.79979 | 12.14320 | 18480 ft | 344 kts | 34° |
| 2026-04-30 22:08 | 54.81959 | 12.16621 | 18030 ft | 341 kts | 34° |
| 2026-04-30 22:08 | 54.83917 | 12.18902 | 17587 ft | 337 kts | 34° |
| 2026-04-30 22:09 | 54.85855 | 12.21164 | 17156 ft | 334 kts | 34° |
| 2026-04-30 22:09 | 54.87775 | 12.23409 | 16728 ft | 331 kts | 34° |
| 2026-04-30 22:09 | 54.89680 | 12.25639 | 16297 ft | 329 kts | 34° |
| 2026-04-30 22:09 | 54.91566 | 12.27849 | 15873 ft | 326 kts | 34° |
| 2026-04-30 22:10 | 54.93445 | 12.30050 | 15433 ft | 325 kts | 34° |
| 2026-04-30 22:10 | 54.95314 | 12.32243 | 14979 ft | 324 kts | 35° |
| 2026-04-30 22:10 | 54.97181 | 12.34442 | 14442 ft | 326 kts | 35° |
| 2026-04-30 22:10 | 54.99103 | 12.36674 | 13537 ft | 337 kts | 32° |
| 2026-04-30 22:11 | 55.03509 | 12.39472 | 12301 ft | 337 kts | 16° |
| 2026-04-30 22:11 | 55.05754 | 12.40494 | 11616 ft | 326 kts | 16° |
| 2026-04-30 22:11 | 55.07893 | 12.41473 | 11161 ft | 312 kts | 16° |
| 2026-04-30 22:12 | 55.09985 | 12.42439 | 10846 ft | 307 kts | 16° |
| 2026-04-30 22:12 | 55.12008 | 12.43377 | 10725 ft | 295 kts | 16° |
| 2026-04-30 22:12 | 55.13957 | 12.44281 | 10605 ft | 284 kts | 16° |
| 2026-04-30 22:12 | 55.15839 | 12.45158 | 10406 ft | 277 kts | 16° |
| 2026-04-30 22:13 | 55.17688 | 12.46019 | 10341 ft | 275 kts | 16° |
| 2026-04-30 22:13 | 55.19456 | 12.47234 | 10235 ft | 273 kts | 35° |
| 2026-04-30 22:13 | 55.20870 | 12.49443 | 10086 ft | 274 kts | 49° |
| 2026-04-30 22:13 | 55.22003 | 12.52117 | 9826 ft | 273 kts | 54° |
| 2026-04-30 22:14 | 55.23070 | 12.54904 | 9558 ft | 272 kts | 55° |
| 2026-04-30 22:14 | 55.24096 | 12.57611 | 9303 ft | 271 kts | 55° |
| 2026-04-30 22:14 | 55.25142 | 12.60371 | 9049 ft | 270 kts | 55° |
| 2026-04-30 22:14 | 55.26191 | 12.63143 | 8787 ft | 269 kts | 55° |
| 2026-04-30 22:15 | 55.27223 | 12.65870 | 8526 ft | 268 kts | 55° |
| 2026-04-30 22:15 | 55.28254 | 12.68591 | 8269 ft | 267 kts | 55° |
| 2026-04-30 22:15 | 55.29282 | 12.71302 | 8036 ft | 266 kts | 55° |
| 2026-04-30 22:15 | 55.30309 | 12.74004 | 7800 ft | 265 kts | 54° |
| 2026-04-30 22:16 | 55.31563 | 12.76350 | 7626 ft | 264 kts | 40° |
| 2026-04-30 22:16 | 55.32985 | 12.78396 | 7459 ft | 264 kts | 38° |
| 2026-04-30 22:17 | 55.37249 | 12.84358 | 6795 ft | 250 kts | 38° |
| 2026-04-30 22:17 | 55.38587 | 12.86215 | 6412 ft | 239 kts | 36° |
| 2026-04-30 22:17 | 55.41598 | 12.88245 | 5658 ft | 233 kts | 15° |
| 2026-04-30 22:18 | 55.43178 | 12.88996 | 5238 ft | 238 kts | 15° |
| 2026-04-30 22:18 | 55.46344 | 12.90511 | 4308 ft | 233 kts | 15° |
| 2026-04-30 22:19 | 55.49439 | 12.91817 | 3554 ft | 221 kts | 1° |
| 2026-04-30 22:19 | 55.50931 | 12.91480 | 3388 ft | 216 kts | 342° |
| 2026-04-30 22:19 | 55.53309 | 12.88395 | 2918 ft | 218 kts | 305° |
| 2026-04-30 22:20 | 55.54144 | 12.86159 | 2635 ft | 218 kts | 305° |
| 2026-04-30 22:20 | 55.55802 | 12.81714 | 2046 ft | 213 kts | 306° |
| 2026-04-30 22:20 | 55.56345 | 12.80255 | 1852 ft | 207 kts | 305° |
| 2026-04-30 22:21 | 55.57104 | 12.78215 | 1580 ft | 192 kts | 306° |
| 2026-04-30 22:21 | 55.57800 | 12.76343 | 1351 ft | 173 kts | 306° |
| 2026-04-30 22:21 | 55.58419 | 12.74679 | 1128 ft | 151 kts | 306° |
| 2026-04-30 22:21 | 55.58969 | 12.73200 | 907 ft | 138 kts | 306° |
| 2026-04-30 22:22 | 55.59477 | 12.71843 | 715 ft | 129 kts | 304° |
| 2026-04-30 22:22 | 55.59989 | 12.70477 | 548 ft | 137 kts | 302° |
| 2026-04-30 22:22 | 55.60498 | 12.69037 | 383 ft | 138 kts | 304° |
| 2026-04-30 22:22 | 55.61042 | 12.67639 | 175 ft | 138 kts | 302° |
| 2026-04-30 22:23 | 55.61556 | 12.66243 | 35 ft | 131 kts | 303° |
| 2026-04-30 22:23 | 55.61968 | 12.65126 | 18 ft | 71 kts | 303° |
| 2026-04-30 22:23 | 55.62152 | 12.64648 | 22 ft | 35 kts | 306° |
| 2026-04-30 22:23 | 55.62297 | 12.64426 | 20 ft | 24 kts | 352° |
| 2026-04-30 22:24 | 55.62455 | 12.64484 | 20 ft | 14 kts | 17° |
| 2026-04-30 22:24 | 55.62531 | 12.64405 | 21 ft | 14 kts | 302° |
| 2026-04-30 22:24 | 55.62589 | 12.64270 | 22 ft | 14 kts | 336° |
| 2026-04-30 22:24 | 55.62678 | 12.64324 | 22 ft | 15 kts | 24° |
| 2026-04-30 22:25 | 55.62756 | 12.64341 | 22 ft | 9 kts | 311° |
| 2026-04-30 22:25 | 55.62759 | 12.64325 | 21 ft | 0 kts | 289° |
| 2026-04-30 22:25 | 55.62763 | 12.64310 | 21 ft | 0 kts | 296° |
| 2026-04-30 22:25 | 55.62764 | 12.64309 | 21 ft | 0 kts | 300° |